This is the latest recevied weather packets stored in our database for station/object W1HVD. If no packets are shown the sender has not sent any weather packets the latest 10 day(s).
| Time | Temp. | Humidity | Pressure | Rain* | Wind** | Luminosity | Snow |
|---|---|---|---|---|---|---|---|
| 1777898874 | 14.44° C | 45% | 1011.6 hPa | 0 mm | - | 390 W/m² | - |
| 1777898571 | 13.89° C | 46% | 1011.5 hPa | 0 mm | - | 377 W/m² | - |
| 1777898268 | 13.33° C | 49% | 1011.6 hPa | 0 mm | - | 343 W/m² | - |
| 1777897965 | 12.78° C | 51% | 1011.7 hPa | 0 mm | - | 193 W/m² | - |
| 1777897661 | 12.22° C | 51% | 1011.8 hPa | 0 mm | - | 169 W/m² | - |
| 1777897358 | 12.22° C | 50% | 1011.8 hPa | 0 mm | - | 75 W/m² | - |
| 1777897054 | 12.22° C | 52% | 1011.8 hPa | 0 mm | - | 99 W/m² | - |
| 1777896751 | 11.67° C | 54% | 1011.8 hPa | 0 mm | - | 94 W/m² | - |
| 1777896448 | 11.11° C | 56% | 1011.8 hPa | 0 mm | - | 75 W/m² | - |
| 1777896145 | 11.11° C | 58% | 1011.9 hPa | 0 mm | - | 67 W/m² | - |
| 1777895843 | 10.56° C | 58% | 1011.9 hPa | 0 mm | - | 68 W/m² | - |
| 1777895540 | 10.56° C | 57% | 1011.6 hPa | 0 mm | - | 68 W/m² | - |
| 1777895238 | 10.56° C | 56% | 1011.7 hPa | 0 mm | - | 93 W/m² | - |
| 1777894935 | 10.56° C | 58% | 1011.7 hPa | 0 mm | - | 131 W/m² | - |
| 1777894633 | 10.56° C | 59% | 1011.8 hPa | 0 mm | - | 113 W/m² | - |
| 1777894329 | 10° C | 58% | 1011.7 hPa | 0 mm | - | 136 W/m² | - |
| 1777894027 | 9.44° C | 61% | 1011.8 hPa | 0 mm | - | 75 W/m² | - |
| 1777893723 | 8.89° C | 63% | 1011.6 hPa | 0 mm | - | 78 W/m² | - |
| 1777893419 | 8.89° C | 63% | 1011.6 hPa | 0 mm | - | 52 W/m² | - |
| 1777893110 | 7.78° C | 67% | 1011.7 hPa | 0 mm | - | 71 W/m² | - |
| 1777892807 | 7.78° C | 66% | 1011.7 hPa | 0 mm | - | 64 W/m² | - |
| 1777892503 | 7.22° C | 68% | 1011.8 hPa | 0 mm | - | 70 W/m² | - |
| 1777892199 | 6.67° C | 71% | 1011.9 hPa | 0 mm | - | 65 W/m² | - |
| 1777891896 | 6.67° C | 70% | 1011.8 hPa | 0 mm | - | 49 W/m² | - |
| 1777891593 | 6.67° C | 70% | 1011.6 hPa | 0 mm | - | 42 W/m² | - |
* Rain latest hour (hover to see other rain measurements)
** Current wind speed in m/s (hover to see current wind gust speed)